Frazier Park, CA (93225)

7:23 AM PDT on September 02, 2014 (GMT -0700)
Lockwood Valley | Change Station
CLOSE
Current Station
Personal Weather Station
Location: Frazier Park, CA
Elevation: 5250 ft
Nearby Weather Stations

Elev 5250 ft 34.77 °N, 119.06 °W | Updated 3 minutes ago

Clear
Clear
32.0 °F
Feels Like 32 °F
N
0.0
Wind Variable Wind from NNE
Gusts 0.0 mph

Today
High -- | Low -- °F
--% Chance of Precip.
Yesterday
High -- | Low -- °F
Precip. -- in
6:29 AM 7:21 PM
First Quarter, 52% visible
Pressure 29.87 in
Visibility 10.0 miles
Clouds Clear
Windchill 32 °F
Dew Point Not available.
Humidity Not available.
Rainfall -999.00 in
Snow Depth Not available.
UV 0 out of 12
Pollen 9.20 out of 12
PM2.5 Good
Flu Activity Not available.
METAR KSDB 021348Z AUTO 19010KT 10SM CLR 20/M01 A3004 RMK AO2 SLP114 T02001006

More Conditions Fewer Conditions

Pressure 29.87 in
Visibility 10.0 miles
Clouds Clear
Windchill 32 °F
Dew Point Not available.
Humidity Not available.
Rainfall -999.00 in
Snow Depth Not available.
UV 0 out of 12
Pollen 9.20 out of 12
PM2.5 Good
Flu Activity Not available.
METAR KSDB 021348Z AUTO 19010KT 10SM CLR 20/M01 A3004 RMK AO2 SLP114 T02001006

More Conditions Fewer Conditions

10-Day Weather Forecast

Almanac

Astronomy

Sep. 02, 2014 Rise Set
Actual Time 6:29 AM PDT 7:21 PM PDT
Civil Twilight 6:04 AM PDT 7:46 PM PDT
Nautical Twilight 5:33 AM PDT 8:17 PM PDT
Astronomical Twilight 5:02 AM PDT 8:48 PM PDT
Moon 2:01 PM PDT No Moon Set
Length of Visible Light 13h 42m
Length of Day
12h 51m
Tomorrow will be 2m 7s shorter.
First Quarter, 52% of the Moon is Illuminated
Today
First Quarter
Sep 8
Full
Sep 15
Last Quarter
Sep 24
New
Oct 1
First Quarter

Today's Extremes

State Highs State Lows

Community

WunderPhotos

Upload Photos

1,749,677 photos uploaded!

WunderBlogs® & News

Nearby

Air Quality

  Air Quality AQ Index Pollutant
Yesterday Moderate
OZONE
Yesterday Moderate
PM2.5
Current Good
PM2.5
Tuesday Moderate
OZONE
Wednesday Moderate
OZONE
Thursday Moderate
OZONE
Friday Moderate
OZONE
Saturday Moderate
OZONE

Snow Depth

Station Depth Elevation
Leavitt Lake 0 in 9400 ft
Sonora Pass 0 in 8800 ft
Leavitt Meadows 1 in 7200 ft
Summit Meadow 1 in 9122 ft
Blue Lakes 0 in 8000 ft

Earthquake Activity

City Distance Mag. Time & Date
Malibu, California 76 miles 2.5 8:11 AM PDT
2014-08-30
Minimum magnitude displayed is 2.5.

Coastal Water Temperatures

Place Temperature
No Stations Reporting

Nearby Weather Stations